Time,TemperatureF,DewpointF,PressureIn,WindDirection,WindDirectionDegrees,WindSpeedMPH,WindSpeedGustMPH,Humidity,HourlyPrecipIn,Conditions,Clouds,dailyrainin,SolarRadiationWatts/m^2,SoftwareType,DateUTC
2013-02-28 00:03:00,20.0,17.3,30.39,NW,325,2.0,5.0,89,0.00,,OVC090,0.00,0.00,VWS V14.00,2013-02-28 06:03:00,
2013-02-28 00:08:00,20.0,17.3,30.38,NW,325,5.0,5.0,89,0.00,,OVC090,0.00,0.00,VWS V14.00,2013-02-28 06:08:00,
2013-02-28 00:13:00,20.0,17.3,30.39,NNW,332,5.0,6.0,89,0.00,,OVC090,0.00,0.00,VWS V14.00,2013-02-28 06:13:00,
2013-02-28 00:18:00,20.0,17.3,30.39,NNW,332,4.0,6.0,89,0.00,,OVC090,0.00,0.00,VWS V14.00,2013-02-28 06:18:00,
2013-02-28 00:23:00,20.1,17.4,30.39,NNW,332,4.0,6.0,89,0.00,,OVC090,0.00,0.00,VWS V14.00,2013-02-28 06:23:00,
2013-02-28 00:28:00,20.1,17.4,30.39,NNW,333,4.0,4.0,89,0.00,,OVC090,0.00,0.00,VWS V14.00,2013-02-28 06:28:00,
2013-02-28 00:33:00,20.0,17.3,30.39,NNW,333,2.0,4.0,89,0.00,,OVC090,0.00,0.00,VWS V14.00,2013-02-28 06:33:00,
2013-02-28 00:38:00,20.0,17.3,30.39,NNW,333,1.0,4.0,89,0.00,,OVC090,0.00,0.00,VWS V14.00,2013-02-28 06:38:00,
2013-02-28 00:43:00,20.0,17.3,30.39,NNW,333,0.0,4.0,89,0.00,,OVC090,0.00,0.00,VWS V14.00,2013-02-28 06:43:00,
2013-02-28 00:48:00,20.0,17.3,30.39,NNW,333,2.0,4.0,89,0.00,,OVC090,0.00,0.00,VWS V14.00,2013-02-28 06:48:00,
2013-02-28 00:53:00,20.0,17.3,30.38,NNW,333,1.0,4.0,89,0.00,,OVC090,0.00,0.00,VWS V14.00,2013-02-28 06:53:00,
2013-02-28 00:59:00,20.0,17.3,30.39,NNW,333,1.0,3.0,89,0.00,,OVC090,0.00,0.00,VWS V14.00,2013-02-28 06:59:00,
2013-02-28 01:04:00,20.1,17.4,30.39,NNW,333,4.0,5.0,89,0.00,,OVC090,0.00,0.00,VWS V14.00,2013-02-28 07:04:00,
2013-02-28 01:09:00,20.1,17.4,30.39,NNW,333,5.0,6.0,89,0.00,,OVC090,0.00,0.00,VWS V14.00,2013-02-28 07:09:00,
2013-02-28 01:14:00,20.1,17.4,30.39,NNW,333,3.0,6.0,89,0.00,,OVC090,0.00,0.00,VWS V14.00,2013-02-28 07:14:00,
2013-02-28 01:19:00,20.1,17.4,30.39,NNW,333,4.0,6.0,89,0.00,,OVC090,0.00,0.00,VWS V14.00,2013-02-28 07:19:00,
2013-02-28 01:24:00,20.2,17.5,30.39,NNW,333,3.0,6.0,89,0.00,,OVC090,0.00,0.00,VWS V14.00,2013-02-28 07:24:00,
2013-02-28 01:29:00,20.2,17.5,30.39,NNW,334,3.0,4.0,89,0.00,,OVC090,0.00,0.00,VWS V14.00,2013-02-28 07:29:00,
2013-02-28 01:34:00,20.2,17.5,30.39,NNW,334,3.0,5.0,89,0.00,,OVC090,0.00,0.00,VWS V14.00,2013-02-28 07:34:00,
2013-02-28 01:39:00,20.2,17.5,30.38,NNW,334,4.0,5.0,89,0.00,,OVC090,0.00,0.00,VWS V14.00,2013-02-28 07:39:00,
2013-02-28 01:44:00,20.3,17.6,30.39,NNW,334,4.0,5.0,89,0.00,,OVC090,0.00,0.00,VWS V14.00,2013-02-28 07:44:00,
2013-02-28 01:49:00,20.3,17.6,30.39,NNW,334,5.0,6.0,89,0.00,,OVC090,0.00,0.00,VWS V14.00,2013-02-28 07:49:00,
2013-02-28 01:54:00,20.3,17.6,30.39,NNW,334,4.0,6.0,89,0.00,,OVC090,0.00,0.00,VWS V14.00,2013-02-28 07:54:00,
2013-02-28 01:59:00,20.3,17.6,30.39,NNW,341,4.0,5.0,89,0.00,,OVC090,0.00,0.00,VWS V14.00,2013-02-28 07:59:00,
2013-02-28 02:04:00,20.3,17.6,30.39,North,355,3.0,6.0,89,0.00,,OVC090,0.00,0.00,VWS V14.00,2013-02-28 08:04:00,
2013-02-28 02:09:00,20.2,17.5,30.39,North,355,4.0,6.0,89,0.00,,OVC090,0.00,0.00,VWS V14.00,2013-02-28 08:09:00,
2013-02-28 02:14:00,20.2,17.5,30.40,North,355,4.0,6.0,89,0.00,,OVC090,0.00,0.00,VWS V14.00,2013-02-28 08:14:00,
2013-02-28 02:19:00,20.2,17.5,30.39,North,355,5.0,6.0,89,0.00,,OVC090,0.00,0.00,VWS V14.00,2013-02-28 08:19:00,
2013-02-28 02:24:00,20.2,17.5,30.39,North,9,5.0,7.0,89,0.00,,OVC090,0.00,0.00,VWS V14.00,2013-02-28 08:24:00,
2013-02-28 02:29:00,20.2,17.5,30.39,North,10,3.0,5.0,89,0.00,,OVC090,0.00,0.00,VWS V14.00,2013-02-28 08:29:00,
2013-02-28 02:34:00,20.1,17.4,30.39,North,10,5.0,5.0,89,0.00,,OVC090,0.00,0.00,VWS V14.00,2013-02-28 08:34:00,
2013-02-28 02:39:00,20.0,17.3,30.39,NNE,23,7.0,7.0,89,0.00,,OVC015,0.00,0.00,VWS V14.00,2013-02-28 08:39:00,
2013-02-28 02:44:00,20.0,17.3,30.39,NNE,23,3.0,7.0,89,0.00,,OVC015,0.00,0.00,VWS V14.00,2013-02-28 08:44:00,
2013-02-28 02:49:00,20.0,17.3,30.39,NNE,23,0.0,7.0,89,0.00,,OVC015,0.00,0.00,VWS V14.00,2013-02-28 08:49:00,
2013-02-28 02:54:00,20.0,17.3,30.39,NNE,23,5.0,7.0,89,0.00,,OVC015,0.00,0.00,VWS V14.00,2013-02-28 08:54:00,
2013-02-28 02:59:00,20.0,17.3,30.39,NE,36,4.0,6.0,89,0.00,,OVC015,0.00,0.00,VWS V14.00,2013-02-28 08:59:00,
2013-02-28 03:04:00,20.0,17.3,30.39,NE,36,3.0,6.0,89,0.00,,OVC015,0.00,0.00,VWS V14.00,2013-02-28 09:04:00,
2013-02-28 03:09:00,20.0,17.3,30.39,NE,36,1.0,6.0,89,0.00,,OVC015,0.00,0.00,VWS V14.00,2013-02-28 09:09:00,
2013-02-28 03:15:00,20.0,17.3,30.39,NE,36,2.0,6.0,89,0.00,,OVC015,0.00,0.00,VWS V14.00,2013-02-28 09:15:00,
2013-02-28 03:20:00,20.0,17.3,30.39,NE,36,4.0,6.0,89,0.00,,OVC015,0.00,0.00,VWS V14.00,2013-02-28 09:20:00,
2013-02-28 03:25:00,20.0,17.3,30.39,NE,36,3.0,6.0,89,0.00,,OVC015,0.00,0.00,VWS V14.00,2013-02-28 09:25:00,
2013-02-28 03:30:00,20.0,17.3,30.39,NE,36,4.0,4.0,89,0.00,,OVC015,0.00,0.00,VWS V14.00,2013-02-28 09:30:00,
2013-02-28 03:35:00,20.0,17.3,30.39,NE,36,3.0,4.0,89,0.00,,OVC015,0.00,0.00,VWS V14.00,2013-02-28 09:35:00,
2013-02-28 03:40:00,20.0,17.3,30.39,NE,36,3.0,5.0,89,0.00,,OVC013,0.00,0.00,VWS V14.00,2013-02-28 09:40:00,
2013-02-28 03:45:00,20.0,17.3,30.39,NE,36,3.0,5.0,89,0.00,,OVC013,0.00,0.00,VWS V14.00,2013-02-28 09:45:00,
2013-02-28 03:50:00,19.9,17.2,30.38,NE,36,2.0,5.0,89,0.00,,OVC013,0.00,0.00,VWS V14.00,2013-02-28 09:50:00,
2013-02-28 03:55:00,19.9,17.2,30.38,NE,36,3.0,5.0,89,0.00,,OVC013,0.00,0.00,VWS V14.00,2013-02-28 09:55:00,
2013-02-28 04:00:00,20.0,17.3,30.38,NE,36,3.0,4.0,89,0.00,,OVC013,0.00,0.00,VWS V14.00,2013-02-28 10:00:00,
2013-02-28 04:05:00,20.0,17.3,30.38,NE,36,4.0,5.0,89,0.00,,OVC013,0.00,0.00,VWS V14.00,2013-02-28 10:05:00,
2013-02-28 04:10:00,20.1,17.4,30.38,NE,36,4.0,5.0,89,0.00,,OVC013,0.00,0.00,VWS V14.00,2013-02-28 10:10:00,
2013-02-28 04:15:00,20.0,17.3,30.38,NE,36,3.0,5.0,89,0.00,,OVC013,0.00,0.00,VWS V14.00,2013-02-28 10:15:00,
2013-02-28 04:20:00,20.2,17.7,30.38,NE,36,3.0,5.0,90,0.00,,OVC013,0.00,0.00,VWS V14.00,2013-02-28 10:20:00,
2013-02-28 04:25:00,20.2,17.7,30.38,NE,35,4.0,5.0,90,0.00,,OVC013,0.00,0.00,VWS V14.00,2013-02-28 10:25:00,
2013-02-28 04:30:00,20.2,17.7,30.38,NE,35,3.0,6.0,90,0.00,,OVC013,0.00,0.00,VWS V14.00,2013-02-28 10:30:00,
2013-02-28 04:36:00,20.2,17.7,30.38,NE,34,3.0,6.0,90,0.00,,OVC013,0.00,0.00,VWS V14.00,2013-02-28 10:36:00,
2013-02-28 04:41:00,20.2,17.7,30.38,NE,34,3.0,6.0,90,0.00,,OVC012,0.00,0.00,VWS V14.00,2013-02-28 10:41:00,
2013-02-28 04:46:00,20.2,17.7,30.38,NNE,14,6.0,8.0,90,0.00,,OVC012,0.00,0.00,VWS V14.00,2013-02-28 10:46:00,
2013-02-28 04:51:00,20.2,17.7,30.38,NNE,16,4.0,8.0,90,0.00,,OVC012,0.00,0.00,VWS V14.00,2013-02-28 10:51:00,
2013-02-28 04:56:00,20.1,17.6,30.38,NNE,16,3.0,8.0,90,0.00,,OVC012,0.00,0.00,VWS V14.00,2013-02-28 10:56:00,
2013-02-28 05:01:00,20.1,17.6,30.38,NNE,14,5.0,5.0,90,0.00,,OVC012,0.00,0.00,VWS V14.00,2013-02-28 11:01:00,
2013-02-28 05:06:00,20.1,17.6,30.38,NNE,14,4.0,5.0,90,0.00,,OVC012,0.00,0.00,VWS V14.00,2013-02-28 11:06:00,
2013-02-28 05:11:00,20.1,17.9,30.38,NNE,14,3.0,5.0,91,0.00,,OVC012,0.00,0.00,VWS V14.00,2013-02-28 11:11:00,
2013-02-28 05:16:00,20.1,17.9,30.38,NNE,14,4.0,5.0,91,0.00,,OVC012,0.00,0.00,VWS V14.00,2013-02-28 11:16:00,
2013-02-28 05:21:00,20.1,17.9,30.38,NNE,14,3.0,5.0,91,0.00,,OVC012,0.00,0.00,VWS V14.00,2013-02-28 11:21:00,
2013-02-28 05:26:00,20.1,17.6,30.38,NNE,14,4.0,5.0,90,0.00,,OVC012,0.00,0.00,VWS V14.00,2013-02-28 11:26:00,
2013-02-28 05:31:00,20.1,17.6,30.38,NNE,14,3.0,5.0,90,0.00,,OVC012,0.00,0.00,VWS V14.00,2013-02-28 11:31:00,
2013-02-28 05:36:00,20.1,17.6,30.38,NNE,14,3.0,5.0,90,0.00,,OVC012,0.00,0.00,VWS V14.00,2013-02-28 11:36:00,
2013-02-28 05:41:00,20.1,17.6,30.38,NNE,14,5.0,5.0,90,0.00,,OVC100,0.00,0.00,VWS V14.00,2013-02-28 11:41:00,
2013-02-28 05:46:00,20.1,17.4,30.38,NNE,14,3.0,5.0,89,0.00,,OVC100,0.00,0.00,VWS V14.00,2013-02-28 11:46:00,
2013-02-28 05:51:00,20.1,17.4,30.38,NNE,14,3.0,5.0,89,0.00,,OVC100,0.00,0.00,VWS V14.00,2013-02-28 11:51:00,
2013-02-28 05:56:00,20.1,17.4,30.39,NNE,14,4.0,5.0,89,0.00,,OVC100,0.00,0.00,VWS V14.00,2013-02-28 11:56:00,
2013-02-28 06:01:00,20.1,17.1,30.39,NNE,14,4.0,5.0,88,0.00,,OVC100,0.00,0.00,VWS V14.00,2013-02-28 12:01:00,
2013-02-28 06:06:00,20.1,17.1,30.39,NNE,14,4.0,5.0,88,0.00,,OVC100,0.00,0.00,VWS V14.00,2013-02-28 12:06:00,
2013-02-28 06:11:00,20.1,17.1,30.39,NNE,14,4.0,5.0,88,0.00,,OVC100,0.00,0.00,VWS V14.00,2013-02-28 12:11:00,
2013-02-28 06:16:00,20.1,17.1,30.39,NNE,14,4.0,5.0,88,0.00,,OVC100,0.00,0.00,VWS V14.00,2013-02-28 12:16:00,
2013-02-28 06:22:00,20.0,17.0,30.39,NNE,14,5.0,6.0,88,0.00,,OVC100,0.00,0.00,VWS V14.00,2013-02-28 12:22:00,
2013-02-28 06:27:00,20.1,17.1,30.39,NNE,14,4.0,7.0,88,0.00,,OVC100,0.00,0.00,VWS V14.00,2013-02-28 12:27:00,
2013-02-28 06:32:00,20.1,17.1,30.39,NNE,14,3.0,7.0,88,0.00,,OVC100,0.00,0.00,VWS V14.00,2013-02-28 12:32:00,
2013-02-28 06:37:00,20.0,17.0,30.39,NNE,14,4.0,7.0,88,0.00,,OVC100,0.00,0.00,VWS V14.00,2013-02-28 12:37:00,
2013-02-28 06:42:00,20.0,16.8,30.40,NNE,14,3.0,7.0,87,0.00,,OVC100,0.00,0.00,VWS V14.00,2013-02-28 12:42:00,
2013-02-28 06:47:00,20.0,17.0,30.40,NNE,14,4.0,7.0,88,0.00,,OVC100,0.00,0.00,VWS V14.00,2013-02-28 12:47:00,
2013-02-28 06:52:00,20.0,17.0,30.40,NNE,14,5.0,7.0,88,0.00,,OVC013,0.00,0.00,VWS V14.00,2013-02-28 12:52:00,
2013-02-28 06:57:00,20.1,16.9,30.40,NNE,14,4.0,7.0,87,0.00,,OVC013,0.00,0.00,VWS V14.00,2013-02-28 12:57:00,
2013-02-28 07:02:00,20.1,16.9,30.40,NNE,14,4.0,6.0,87,0.00,,OVC013,0.00,0.00,VWS V14.00,2013-02-28 13:02:00,
2013-02-28 07:07:00,20.1,16.9,30.40,NNE,14,5.0,6.0,87,0.00,,OVC013,0.00,0.00,VWS V14.00,2013-02-28 13:07:00,
2013-02-28 07:12:00,20.0,16.8,30.40,NNE,12,5.0,6.0,87,0.00,,OVC013,0.00,0.00,VWS V14.00,2013-02-28 13:12:00,
2013-02-28 07:17:00,20.1,16.9,30.40,NNE,12,4.0,6.0,87,0.00,,OVC013,0.00,0.00,VWS V14.00,2013-02-28 13:17:00,
2013-02-28 07:22:00,20.1,16.9,30.41,NNE,12,5.0,6.0,87,0.00,,OVC013,0.00,0.00,VWS V14.00,2013-02-28 13:22:00,
2013-02-28 07:27:00,20.0,16.8,30.41,North,5,6.0,7.0,87,0.00,,OVC013,0.00,0.00,VWS V14.00,2013-02-28 13:27:00,
2013-02-28 07:32:00,20.0,16.8,30.41,North,5,5.0,6.0,87,0.00,,OVC013,0.00,5.00,VWS V14.00,2013-02-28 13:32:00,
2013-02-28 07:37:00,20.0,16.8,30.41,North,5,4.0,6.0,87,0.00,,OVC013,0.00,7.00,VWS V14.00,2013-02-28 13:37:00,
2013-02-28 07:42:00,20.1,16.9,30.41,North,5,5.0,7.0,87,0.00,,OVC015,0.00,11.00,VWS V14.00,2013-02-28 13:42:00,
2013-02-28 07:47:00,20.1,16.9,30.40,North,5,6.0,7.0,87,0.00,,OVC015,0.00,14.00,VWS V14.00,2013-02-28 13:47:00,
2013-02-28 07:52:00,20.0,16.8,30.40,NNE,13,8.0,9.0,87,0.00,,OVC015,0.00,19.00,VWS V14.00,2013-02-28 13:52:00,
2013-02-28 07:57:00,20.1,16.9,30.40,NNE,27,8.0,10.0,87,0.00,,OVC015,0.00,25.00,VWS V14.00,2013-02-28 13:57:00,
2013-02-28 08:03:00,20.2,17.0,30.41,NNE,30,8.0,10.0,87,0.00,,OVC015,0.00,30.00,VWS V14.00,2013-02-28 14:03:00,
2013-02-28 08:08:00,20.1,16.6,30.41,NNE,32,9.0,10.0,86,0.00,,OVC015,0.00,35.00,VWS V14.00,2013-02-28 14:08:00,
2013-02-28 08:13:00,20.1,16.6,30.41,NE,35,7.0,10.0,86,0.00,,OVC015,0.00,40.00,VWS V14.00,2013-02-28 14:13:00,
2013-02-28 08:18:00,20.1,16.6,30.40,NE,36,5.0,10.0,86,0.00,,OVC015,0.00,44.00,VWS V14.00,2013-02-28 14:18:00,
2013-02-28 08:23:00,20.1,16.6,30.41,NE,40,6.0,10.0,86,0.00,,OVC015,0.00,47.00,VWS V14.00,2013-02-28 14:23:00,
2013-02-28 08:28:00,20.2,16.7,30.41,NE,40,5.0,10.0,86,0.00,,OVC015,0.00,56.00,VWS V14.00,2013-02-28 14:28:00,
2013-02-28 08:33:00,20.2,16.7,30.41,NE,40,7.0,8.0,86,0.00,,OVC015,0.00,60.00,VWS V14.00,2013-02-28 14:33:00,
2013-02-28 08:38:00,20.2,16.4,30.41,NE,49,8.0,9.0,85,0.00,,OVC015,0.00,63.00,VWS V14.00,2013-02-28 14:38:00,
2013-02-28 08:43:00,20.3,16.5,30.41,NE,49,6.0,9.0,85,0.00,,OVC017,0.00,72.00,VWS V14.00,2013-02-28 14:43:00,
2013-02-28 08:48:00,20.4,16.6,30.41,NE,49,6.0,9.0,85,0.00,,OVC017,0.00,79.00,VWS V14.00,2013-02-28 14:48:00,
2013-02-28 08:53:00,20.5,16.7,30.41,NE,47,4.0,9.0,85,0.00,,OVC017,0.00,83.00,VWS V14.00,2013-02-28 14:53:00,
2013-02-28 08:58:00,20.6,16.5,30.41,NE,48,6.0,9.0,84,0.00,,OVC017,0.00,88.00,VWS V14.00,2013-02-28 14:58:00,
2013-02-28 09:03:00,20.7,16.6,30.41,NE,48,3.0,5.0,84,0.00,,OVC017,0.00,93.00,VWS V14.00,2013-02-28 15:03:00,
2013-02-28 09:08:00,20.7,16.6,30.41,NE,51,4.0,9.0,84,0.00,,OVC017,0.00,111.00,VWS V14.00,2013-02-28 15:08:00,
2013-02-28 09:13:00,20.7,16.4,30.41,NE,51,4.0,9.0,83,0.00,,OVC017,0.00,105.00,VWS V14.00,2013-02-28 15:13:00,
2013-02-28 09:18:00,20.9,16.8,30.41,NE,51,4.0,9.0,84,0.00,,OVC017,0.00,109.00,VWS V14.00,2013-02-28 15:18:00,
2013-02-28 09:23:00,21.1,17.0,30.41,NE,51,4.0,9.0,84,0.00,,OVC017,0.00,125.00,VWS V14.00,2013-02-28 15:23:00,
2013-02-28 09:28:00,21.2,16.9,30.41,NE,51,4.0,9.0,83,0.00,,OVC017,0.00,137.00,VWS V14.00,2013-02-28 15:28:00,
2013-02-28 09:33:00,21.5,17.1,30.41,NE,51,6.0,6.0,83,0.00,,OVC017,0.00,141.00,VWS V14.00,2013-02-28 15:33:00,
2013-02-28 09:38:00,21.6,17.2,30.41,NE,51,3.0,7.0,83,0.00,,OVC017,0.00,155.00,VWS V14.00,2013-02-28 15:38:00,
2013-02-28 09:43:00,21.9,17.5,30.41,NE,51,4.0,7.0,83,0.00,,OVC016,0.00,158.00,VWS V14.00,2013-02-28 15:43:00,
2013-02-28 09:48:00,22.0,17.4,30.41,NE,46,4.0,7.0,82,0.00,,OVC016,0.00,171.00,VWS V14.00,2013-02-28 15:48:00,
2013-02-28 09:53:00,21.9,17.0,30.40,NE,49,4.0,7.0,81,0.00,,OVC016,0.00,183.00,VWS V14.00,2013-02-28 15:53:00,
2013-02-28 09:59:00,22.0,17.4,30.41,NE,49,4.0,4.0,82,0.00,,OVC016,0.00,174.00,VWS V14.00,2013-02-28 15:59:00,
2013-02-28 10:04:00,22.2,17.5,30.41,NE,49,4.0,5.0,82,0.00,,OVC016,0.00,181.00,VWS V14.00,2013-02-28 16:04:00,
2013-02-28 10:09:00,22.3,17.6,30.41,NE,49,2.0,5.0,82,0.00,,OVC016,0.00,169.00,VWS V14.00,2013-02-28 16:09:00,
2013-02-28 10:14:00,22.5,17.9,30.41,NE,49,3.0,5.0,82,0.00,,OVC016,0.00,176.00,VWS V14.00,2013-02-28 16:14:00,
2013-02-28 10:19:00,22.4,17.2,30.41,NE,49,1.0,5.0,80,0.00,,OVC016,0.00,192.00,VWS V14.00,2013-02-28 16:19:00,
2013-02-28 10:24:00,22.4,17.2,30.41,NE,49,0.0,5.0,80,0.00,,OVC016,0.00,197.00,VWS V14.00,2013-02-28 16:24:00,
2013-02-28 10:29:00,22.6,17.7,30.41,NE,49,3.0,3.0,81,0.00,,OVC016,0.00,190.00,VWS V14.00,2013-02-28 16:29:00,
2013-02-28 10:34:00,22.4,17.2,30.41,NE,49,0.0,3.0,80,0.00,,OVC016,0.00,202.00,VWS V14.00,2013-02-28 16:34:00,
2013-02-28 10:39:00,22.4,17.5,30.41,NE,49,1.0,3.0,81,0.00,,OVC015,0.00,239.00,VWS V14.00,2013-02-28 16:39:00,
2013-02-28 10:44:00,22.9,18.0,30.41,NNE,27,2.0,6.0,81,0.00,,OVC015,0.00,243.00,VWS V14.00,2013-02-28 16:44:00,
2013-02-28 10:49:00,22.6,17.4,30.41,NNE,27,2.0,6.0,80,0.00,,OVC015,0.00,229.00,VWS V14.00,2013-02-28 16:49:00,
2013-02-28 10:54:00,22.5,17.6,30.41,NNE,27,2.0,6.0,81,0.00,,OVC015,0.00,234.00,VWS V14.00,2013-02-28 16:54:00,
2013-02-28 10:59:00,22.8,18.1,30.41,NNE,25,4.0,4.0,82,0.00,,OVC015,0.00,258.00,VWS V14.00,2013-02-28 16:59:00,
2013-02-28 11:04:00,23.3,18.6,30.41,NNE,25,3.0,4.0,82,0.00,,OVC015,0.00,271.00,VWS V14.00,2013-02-28 17:04:00,
2013-02-28 11:09:00,23.6,18.6,30.41,NNE,25,4.0,5.0,81,0.00,,OVC015,0.00,315.00,VWS V14.00,2013-02-28 17:09:00,
2013-02-28 11:14:00,24.2,19.2,30.40,NNE,25,2.0,5.0,81,0.00,,OVC015,0.00,341.00,VWS V14.00,2013-02-28 17:14:00,
2013-02-28 11:20:00,24.0,18.5,30.40,NNE,20,3.0,5.0,79,0.00,,OVC015,0.00,443.00,VWS V14.00,2013-02-28 17:20:00,
2013-02-28 11:25:00,24.0,19.0,30.40,NNE,17,3.0,7.0,81,0.00,,OVC015,0.00,454.00,VWS V14.00,2013-02-28 17:25:00,
2013-02-28 11:30:00,24.7,19.4,30.39,NNE,23,2.0,5.0,80,0.00,,OVC015,0.00,443.00,VWS V14.00,2013-02-28 17:30:00,
2013-02-28 11:35:00,25.3,19.7,30.39,NE,36,5.0,6.0,79,0.00,,OVC015,0.00,394.00,VWS V14.00,2013-02-28 17:35:00,
2013-02-28 11:40:00,25.9,20.0,30.39,NE,40,6.0,7.0,78,0.00,,OVC015,0.00,392.00,VWS V14.00,2013-02-28 17:40:00,
2013-02-28 11:45:00,26.0,20.1,30.39,NE,42,5.0,7.0,78,0.00,,OVC015,0.00,418.00,VWS V14.00,2013-02-28 17:45:00,
2013-02-28 11:50:00,26.1,19.9,30.39,NE,53,4.0,7.0,77,0.00,,OVC015,0.00,462.00,VWS V14.00,2013-02-28 17:50:00,
2013-02-28 11:55:00,26.1,20.2,30.39,NE,53,5.0,7.0,78,0.00,,OVC015,0.00,418.00,VWS V14.00,2013-02-28 17:55:00,
2013-02-28 12:00:00,26.4,20.2,30.39,NE,53,0.0,5.0,77,0.00,,OVC100,0.00,536.00,VWS V14.00,2013-02-28 18:00:00,
2013-02-28 12:05:00,26.6,19.8,30.39,NE,53,1.0,5.0,75,0.00,,OVC100,0.00,441.00,VWS V14.00,2013-02-28 18:05:00,
2013-02-28 12:10:00,26.5,19.7,30.39,NE,53,4.0,5.0,75,0.00,,OVC100,0.00,413.00,VWS V14.00,2013-02-28 18:10:00,
2013-02-28 12:15:00,26.1,19.9,30.39,NE,53,3.0,6.0,77,0.00,,OVC100,0.00,422.00,VWS V14.00,2013-02-28 18:15:00,
2013-02-28 12:20:00,26.6,20.4,30.39,NE,53,1.0,6.0,77,0.00,,OVC100,0.00,413.00,VWS V14.00,2013-02-28 18:20:00,
2013-02-28 12:25:00,26.7,20.2,30.39,NE,53,1.0,6.0,76,0.00,,OVC100,0.00,446.00,VWS V14.00,2013-02-28 18:25:00,
2013-02-28 12:30:00,26.9,20.4,30.39,NE,53,4.0,4.0,76,0.00,,OVC100,0.00,478.00,VWS V14.00,2013-02-28 18:30:00,
2013-02-28 12:35:00,27.3,21.1,30.39,NE,53,3.0,5.0,77,0.00,,OVC100,0.00,473.00,VWS V14.00,2013-02-28 18:35:00,
2013-02-28 12:40:00,27.6,20.7,30.39,NE,53,4.0,7.0,75,0.00,,OVC100,0.00,413.00,VWS V14.00,2013-02-28 18:40:00,
2013-02-28 12:45:00,27.5,20.9,30.38,NE,53,3.0,7.0,76,0.00,,OVC100,0.00,526.00,VWS V14.00,2013-02-28 18:45:00,
2013-02-28 12:51:00,28.1,21.8,30.38,NE,53,4.0,7.0,77,0.00,,OVC100,0.00,612.00,VWS V14.00,2013-02-28 18:51:00,
2013-02-28 12:56:00,28.7,21.8,30.38,NE,53,5.0,8.0,75,0.00,,OVC100,0.00,406.00,VWS V14.00,2013-02-28 18:56:00,
2013-02-28 13:01:00,28.4,21.8,30.38,NE,52,6.0,8.0,76,0.00,,OVC100,0.00,719.00,VWS V14.00,2013-02-28 19:01:00,
2013-02-28 13:06:00,28.6,21.7,30.38,NE,56,4.0,8.0,75,0.00,,OVC100,0.00,573.00,VWS V14.00,2013-02-28 19:06:00,
2013-02-28 13:11:00,28.9,22.0,30.38,NE,52,4.0,8.0,75,0.00,,OVC100,0.00,557.00,VWS V14.00,2013-02-28 19:11:00,
2013-02-28 13:16:00,28.8,21.2,30.38,ENE,63,5.0,8.0,73,0.00,,OVC100,0.00,522.00,VWS V14.00,2013-02-28 19:16:00,
2013-02-28 13:21:00,27.9,20.4,30.38,ENE,73,8.0,9.0,73,0.00,,OVC100,0.00,478.00,VWS V14.00,2013-02-28 19:21:00,
2013-02-28 13:26:00,27.4,20.5,30.38,ENE,78,9.0,9.0,75,0.00,,OVC100,0.00,561.00,VWS V14.00,2013-02-28 19:26:00,
2013-02-28 13:31:00,27.0,20.8,30.38,East,79,5.0,7.0,77,0.00,,OVC100,0.00,599.00,VWS V14.00,2013-02-28 19:31:00,
2013-02-28 13:36:00,27.6,21.4,30.38,East,79,5.0,7.0,77,0.00,,OVC100,0.00,536.00,VWS V14.00,2013-02-28 19:36:00,
2013-02-28 13:41:00,28.3,21.4,30.38,ENE,66,2.0,7.0,75,0.00,,OVC100,0.00,388.00,VWS V14.00,2013-02-28 19:41:00,
2013-02-28 13:46:00,28.7,21.5,30.38,ENE,59,5.0,7.0,74,0.00,,OVC100,0.00,404.00,VWS V14.00,2013-02-28 19:46:00,
2013-02-28 13:51:00,29.1,21.9,30.38,ENE,59,3.0,7.0,74,0.00,,BKN100,0.00,577.00,VWS V14.00,2013-02-28 19:51:00,
2013-02-28 13:56:00,29.6,22.4,30.38,ENE,59,3.0,7.0,74,0.00,,BKN100,0.00,633.00,VWS V14.00,2013-02-28 19:56:00,
2013-02-28 14:01:00,29.7,22.1,30.38,ENE,57,4.0,5.0,73,0.00,,BKN100,0.00,584.00,VWS V14.00,2013-02-28 20:01:00,
2013-02-28 14:06:00,28.7,20.8,30.37,ENE,57,3.0,5.0,72,0.00,,BKN100,0.00,374.00,VWS V14.00,2013-02-28 20:06:00,
2013-02-28 14:11:00,28.5,21.3,30.37,ENE,57,3.0,5.0,74,0.00,,BKN100,0.00,673.00,VWS V14.00,2013-02-28 20:11:00,
2013-02-28 14:16:00,28.8,21.9,30.37,ENE,57,4.0,5.0,75,0.00,,BKN100,0.00,545.00,VWS V14.00,2013-02-28 20:16:00,
2013-02-28 14:21:00,29.3,22.4,30.37,ENE,57,3.0,7.0,75,0.00,,BKN100,0.00,677.00,VWS V14.00,2013-02-28 20:21:00,
2013-02-28 14:27:00,30.1,22.8,30.37,ENE,57,7.0,8.0,74,0.00,,BKN100,0.00,380.00,VWS V14.00,2013-02-28 20:27:00,
2013-02-28 14:32:00,29.9,22.0,30.36,NE,55,4.0,6.0,72,0.00,,BKN100,0.00,638.00,VWS V14.00,2013-02-28 20:32:00,
2013-02-28 14:37:00,29.7,22.4,30.36,ENE,63,4.0,7.0,74,0.00,,BKN100,0.00,654.00,VWS V14.00,2013-02-28 20:37:00,
2013-02-28 14:42:00,28.6,22.0,30.36,East,84,5.0,8.0,76,0.00,,BKN100,0.00,594.00,VWS V14.00,2013-02-28 20:42:00,
2013-02-28 14:47:00,28.3,21.7,30.36,ESE,103,4.0,9.0,76,0.00,,BKN100,0.00,364.00,VWS V14.00,2013-02-28 20:47:00,
2013-02-28 14:52:00,28.0,22.0,30.36,ESE,118,5.0,10.0,78,0.00,,OVC100,0.00,489.00,VWS V14.00,2013-02-28 20:52:00,
2013-02-28 14:57:00,27.8,22.1,30.36,ESE,113,8.0,10.0,79,0.00,,OVC100,0.00,686.00,VWS V14.00,2013-02-28 20:57:00,
2013-02-28 15:02:00,27.8,22.1,30.36,ESE,105,7.0,9.0,79,0.00,,OVC100,0.00,265.00,VWS V14.00,2013-02-28 21:02:00,
2013-02-28 15:07:00,27.8,21.9,30.36,ESE,105,7.0,9.0,78,0.00,,OVC100,0.00,339.00,VWS V14.00,2013-02-28 21:07:00,
2013-02-28 15:12:00,27.7,22.0,30.36,East,98,3.0,9.0,79,0.00,,OVC100,0.00,308.00,VWS V14.00,2013-02-28 21:12:00,
2013-02-28 15:17:00,27.8,22.1,30.36,East,90,6.0,9.0,79,0.00,,OVC100,0.00,446.00,VWS V14.00,2013-02-28 21:17:00,
2013-02-28 15:22:00,28.3,22.6,30.36,East,91,5.0,9.0,79,0.00,,OVC100,0.00,350.00,VWS V14.00,2013-02-28 21:22:00,
2013-02-28 15:27:00,28.2,22.5,30.36,East,88,3.0,9.0,79,0.00,,OVC100,0.00,362.00,VWS V14.00,2013-02-28 21:27:00,
2013-02-28 15:32:00,28.1,22.4,30.36,East,89,5.0,7.0,79,0.00,,OVC100,0.00,360.00,VWS V14.00,2013-02-28 21:32:00,
2013-02-28 15:37:00,28.1,21.8,30.36,East,96,1.0,10.0,77,0.00,,OVC100,0.00,176.00,VWS V14.00,2013-02-28 21:37:00,
2013-02-28 15:42:00,27.8,22.1,30.36,East,97,5.0,10.0,79,0.00,,BKN018,0.00,225.00,VWS V14.00,2013-02-28 21:42:00,
2013-02-28 15:47:00,27.4,21.8,30.36,East,90,7.0,10.0,79,0.00,,BKN018,0.00,272.00,VWS V14.00,2013-02-28 21:47:00,
2013-02-28 15:52:00,27.4,22.0,30.36,East,80,3.0,10.0,80,0.00,,SCT017,0.00,276.00,VWS V14.00,2013-02-28 21:52:00,
2013-02-28 15:57:00,27.6,22.2,30.36,East,80,3.0,10.0,80,0.00,,SCT017,0.00,334.00,VWS V14.00,2013-02-28 21:57:00,
2013-02-28 16:02:00,27.6,22.0,30.36,East,80,5.0,5.0,79,0.00,,SCT017,0.00,264.00,VWS V14.00,2013-02-28 22:02:00,
2013-02-28 16:07:00,27.3,22.2,30.37,East,80,5.0,7.0,81,0.00,,SCT017,0.00,174.00,VWS V14.00,2013-02-28 22:07:00,
2013-02-28 16:12:00,27.4,22.4,30.37,East,80,1.0,7.0,81,0.00,,SCT017,0.00,149.00,VWS V14.00,2013-02-28 22:12:00,
2013-02-28 16:17:00,27.2,21.9,30.36,East,80,5.0,7.0,80,0.00,,SCT017,0.00,153.00,VWS V14.00,2013-02-28 22:17:00,
2013-02-28 16:23:00,27.1,21.8,30.36,East,80,2.0,7.0,80,0.00,,SCT017,0.00,153.00,VWS V14.00,2013-02-28 22:23:00,
2013-02-28 16:28:00,27.4,22.4,30.36,East,80,3.0,7.0,81,0.00,,SCT017,0.00,144.00,VWS V14.00,2013-02-28 22:28:00,
2013-02-28 16:33:00,27.3,22.2,30.36,East,79,5.0,8.0,81,0.00,,SCT017,0.00,123.00,VWS V14.00,2013-02-28 22:33:00,
2013-02-28 16:38:00,27.1,22.1,30.36,East,79,6.0,8.0,81,0.00,,SCT017,0.00,56.00,VWS V14.00,2013-02-28 22:38:00,
2013-02-28 16:43:00,26.7,21.7,30.36,ENE,78,8.0,9.0,81,0.00,,BKN018,0.00,77.00,VWS V14.00,2013-02-28 22:43:00,
2013-02-28 16:48:00,26.3,21.6,30.36,East,82,5.0,9.0,82,0.00,,BKN018,0.00,88.00,VWS V14.00,2013-02-28 22:48:00,
2013-02-28 16:53:00,26.2,21.8,30.36,East,85,7.0,9.0,83,0.00,,BKN018,0.00,95.00,VWS V14.00,2013-02-28 22:53:00,
2013-02-28 16:58:00,26.1,21.6,30.36,East,85,5.0,9.0,83,0.00,,BKN018,0.00,95.00,VWS V14.00,2013-02-28 22:58:00,
2013-02-28 17:03:00,26.1,21.6,30.36,East,85,3.0,8.0,83,0.00,,BKN018,0.00,84.00,VWS V14.00,2013-02-28 23:03:00,
2013-02-28 17:08:00,26.0,21.6,30.36,East,82,7.0,10.0,83,0.00,,BKN018,0.00,69.00,VWS V14.00,2013-02-28 23:08:00,
2013-02-28 17:13:00,25.9,21.5,30.36,East,82,6.0,10.0,83,0.00,,BKN018,0.00,67.00,VWS V14.00,2013-02-28 23:13:00,
2013-02-28 17:18:00,26.1,21.9,30.36,East,83,6.0,10.0,84,0.00,,BKN018,0.00,63.00,VWS V14.00,2013-02-28 23:18:00,
2013-02-28 17:23:00,26.1,21.6,30.37,East,83,5.0,10.0,83,0.00,,BKN018,0.00,56.00,VWS V14.00,2013-02-28 23:23:00,
2013-02-28 17:28:00,26.1,21.9,30.36,East,86,5.0,10.0,84,0.00,,BKN018,0.00,54.00,VWS V14.00,2013-02-28 23:28:00,
2013-02-28 17:33:00,26.0,21.6,30.37,East,86,3.0,8.0,83,0.00,,BKN018,0.00,47.00,VWS V14.00,2013-02-28 23:33:00,
2013-02-28 17:38:00,25.9,21.5,30.37,East,86,5.0,8.0,83,0.00,,BKN018,0.00,37.00,VWS V14.00,2013-02-28 23:38:00,
2013-02-28 17:43:00,25.9,21.7,30.37,East,93,6.0,8.0,84,0.00,,OVC019,0.00,28.00,VWS V14.00,2013-02-28 23:43:00,
2013-02-28 17:48:00,25.7,21.5,30.37,East,94,6.0,9.0,84,0.00,,OVC019,0.00,26.00,VWS V14.00,2013-02-28 23:48:00,
2013-02-28 17:53:00,25.7,21.8,30.37,East,97,8.0,10.0,85,0.00,,OVC019,0.00,25.00,VWS V14.00,2013-02-28 23:53:00,
2013-02-28 17:58:00,25.5,21.6,30.37,East,97,5.0,10.0,85,0.00,,OVC019,0.00,21.00,VWS V14.00,2013-02-28 23:58:00,
2013-02-28 18:03:00,25.4,21.5,30.37,East,92,6.0,8.0,85,0.00,,OVC019,0.00,18.00,VWS V14.00,2013-03-01 00:03:00,
2013-02-28 18:08:00,25.3,21.4,30.37,East,90,7.0,9.0,85,0.00,,OVC019,0.00,14.00,VWS V14.00,2013-03-01 00:08:00,
2013-02-28 18:13:00,25.2,21.3,30.37,East,91,7.0,9.0,85,0.00,,OVC019,0.00,11.00,VWS V14.00,2013-03-01 00:13:00,
2013-02-28 18:18:00,25.1,21.5,30.37,East,90,6.0,10.0,86,0.00,,OVC019,0.00,7.00,VWS V14.00,2013-03-01 00:18:00,
2013-02-28 18:23:00,25.0,21.4,30.37,East,90,7.0,10.0,86,0.00,,OVC019,0.00,5.00,VWS V14.00,2013-03-01 00:23:00,
2013-02-28 18:28:00,24.9,21.3,30.36,East,96,7.0,9.0,86,0.00,,OVC019,0.00,0.00,VWS V14.00,2013-03-01 00:28:00,
2013-02-28 18:34:00,24.7,21.1,30.36,East,94,7.0,10.0,86,0.00,,OVC019,0.00,0.00,VWS V14.00,2013-03-01 00:34:00,
2013-02-28 18:39:00,24.6,21.0,30.37,East,93,6.0,10.0,86,0.00,,OVC019,0.00,0.00,VWS V14.00,2013-03-01 00:39:00,
2013-02-28 18:44:00,24.5,20.9,30.37,East,96,7.0,10.0,86,0.00,,OVC019,0.00,0.00,VWS V14.00,2013-03-01 00:44:00,
2013-02-28 18:49:00,24.5,20.9,30.38,East,92,7.0,10.0,86,0.00,,OVC019,0.00,0.00,VWS V14.00,2013-03-01 00:49:00,
2013-02-28 18:54:00,24.5,21.2,30.38,East,96,7.0,10.0,87,0.00,,OVC019,0.00,0.00,VWS V14.00,2013-03-01 00:54:00,
2013-02-28 18:59:00,24.4,21.1,30.38,East,98,8.0,9.0,87,0.00,,OVC019,0.00,0.00,VWS V14.00,2013-03-01 00:59:00,
2013-02-28 19:04:00,24.3,21.0,30.38,East,101,10.0,11.0,87,0.00,,OVC019,0.00,0.00,VWS V14.00,2013-03-01 01:04:00,
2013-02-28 19:09:00,24.2,20.9,30.38,East,96,8.0,11.0,87,0.00,,OVC019,0.00,0.00,VWS V14.00,2013-03-01 01:09:00,
2013-02-28 19:14:00,24.2,20.9,30.38,East,91,8.0,11.0,87,0.00,,OVC019,0.00,0.00,VWS V14.00,2013-03-01 01:14:00,
2013-02-28 19:19:00,24.1,20.8,30.38,East,92,9.0,11.0,87,0.00,,OVC019,0.00,0.00,VWS V14.00,2013-03-01 01:19:00,
2013-02-28 19:24:00,24.0,20.7,30.38,East,89,8.0,11.0,87,0.00,,OVC019,0.00,0.00,VWS V14.00,2013-03-01 01:24:00,
2013-02-28 19:29:00,23.9,20.6,30.38,East,89,7.0,8.0,87,0.00,,OVC019,0.00,0.00,VWS V14.00,2013-03-01 01:29:00,
2013-02-28 19:34:00,23.9,20.6,30.39,East,89,8.0,10.0,87,0.00,,OVC019,0.00,0.00,VWS V14.00,2013-03-01 01:34:00,
2013-02-28 19:39:00,23.8,20.5,30.39,East,86,7.0,10.0,87,0.00,,OVC019,0.00,0.00,VWS V14.00,2013-03-01 01:39:00,
2013-02-28 19:44:00,23.8,20.5,30.38,East,89,7.0,10.0,87,0.00,,OVC019,0.00,0.00,VWS V14.00,2013-03-01 01:44:00,
2013-02-28 19:49:00,23.7,20.4,30.38,East,92,7.0,10.0,87,0.00,,OVC019,0.00,0.00,VWS V14.00,2013-03-01 01:49:00,
2013-02-28 19:54:00,23.6,20.3,30.38,East,94,6.0,10.0,87,0.00,,OVC019,0.00,0.00,VWS V14.00,2013-03-01 01:54:00,
2013-02-28 19:59:00,23.5,20.2,30.38,East,95,9.0,10.0,87,0.00,,OVC019,0.00,0.00,VWS V14.00,2013-03-01 01:59:00,
2013-02-28 20:04:00,23.4,20.1,30.38,East,88,7.0,10.0,87,0.00,,OVC019,0.00,0.00,VWS V14.00,2013-03-01 02:04:00,
2013-02-28 20:10:00,23.3,20.0,30.38,East,94,8.0,11.0,87,0.00,,OVC019,0.00,0.00,VWS V14.00,2013-03-01 02:10:00,
2013-02-28 20:15:00,23.3,20.3,30.38,East,98,8.0,11.0,88,0.00,,OVC019,0.00,0.00,VWS V14.00,2013-03-01 02:15:00,
2013-02-28 20:20:00,23.3,20.3,30.38,East,97,7.0,11.0,88,0.00,,OVC019,0.00,0.00,VWS V14.00,2013-03-01 02:20:00,
2013-02-28 20:25:00,23.3,20.0,30.38,East,97,9.0,11.0,87,0.00,,OVC019,0.00,0.00,VWS V14.00,2013-03-01 02:25:00,
2013-02-28 20:30:00,23.3,20.0,30.38,East,100,8.0,9.0,87,0.00,,OVC019,0.00,0.00,VWS V14.00,2013-03-01 02:30:00,
2013-02-28 20:35:00,23.3,20.0,30.39,East,98,6.0,9.0,87,0.00,,OVC019,0.00,0.00,VWS V14.00,2013-03-01 02:35:00,
2013-02-28 20:40:00,23.3,20.3,30.38,East,95,6.0,10.0,88,0.00,,OVC018,0.00,0.00,VWS V14.00,2013-03-01 02:40:00,
2013-02-28 20:45:00,23.3,20.3,30.38,East,100,9.0,10.0,88,0.00,,OVC018,0.00,0.00,VWS V14.00,2013-03-01 02:45:00,
2013-02-28 20:50:00,23.3,20.3,30.38,East,99,6.0,11.0,88,0.00,,OVC018,0.00,0.00,VWS V14.00,2013-03-01 02:50:00,
2013-02-28 20:55:00,23.3,20.3,30.38,East,99,8.0,11.0,88,0.00,,OVC018,0.00,0.00,VWS V14.00,2013-03-01 02:55:00,
2013-02-28 21:00:00,23.2,20.2,30.38,East,98,8.0,10.0,88,0.00,,OVC018,0.00,0.00,VWS V14.00,2013-03-01 03:00:00,
2013-02-28 21:05:00,23.2,20.2,30.38,ESE,103,10.0,11.0,88,0.00,,OVC018,0.00,0.00,VWS V14.00,2013-03-01 03:05:00,
2013-02-28 21:10:00,23.1,20.1,30.38,East,97,7.0,11.0,88,0.00,,OVC018,0.00,0.00,VWS V14.00,2013-03-01 03:10:00,
2013-02-28 21:15:00,23.1,20.1,30.38,ESE,103,8.0,11.0,88,0.00,,OVC018,0.00,0.00,VWS V14.00,2013-03-01 03:15:00,
2013-02-28 21:20:00,23.0,20.0,30.38,East,96,8.0,14.0,88,0.00,,OVC018,0.00,0.00,VWS V14.00,2013-03-01 03:20:00,
2013-02-28 21:25:00,22.9,19.9,30.38,East,101,10.0,14.0,88,0.00,,OVC018,0.00,0.00,VWS V14.00,2013-03-01 03:25:00,
2013-02-28 21:30:00,22.7,19.7,30.38,ESE,102,9.0,11.0,88,0.00,,OVC018,0.00,0.00,VWS V14.00,2013-03-01 03:30:00,
2013-02-28 21:35:00,22.7,19.7,30.38,East,95,8.0,11.0,88,0.00,,OVC018,0.00,0.00,VWS V14.00,2013-03-01 03:35:00,
2013-02-28 21:40:00,22.6,19.6,30.38,ESE,105,10.0,12.0,88,0.00,,OVC080,0.00,0.00,VWS V14.00,2013-03-01 03:40:00,
2013-02-28 21:45:00,22.6,19.6,30.38,East,96,8.0,12.0,88,0.00,,OVC080,0.00,0.00,VWS V14.00,2013-03-01 03:45:00,
2013-02-28 21:51:00,22.5,19.5,30.38,ESE,105,7.0,13.0,88,0.00,,OVC080,0.00,0.00,VWS V14.00,2013-03-01 03:51:00,
2013-02-28 21:56:00,22.5,19.5,30.38,ESE,105,9.0,13.0,88,0.00,,OVC080,0.00,0.00,VWS V14.00,2013-03-01 03:56:00,
2013-02-28 22:01:00,22.5,19.5,30.38,ESE,111,9.0,12.0,88,0.00,,OVC080,0.00,0.00,VWS V14.00,2013-03-01 04:01:00,
2013-02-28 22:06:00,22.5,19.5,30.38,East,101,10.0,12.0,88,0.00,,OVC080,0.00,0.00,VWS V14.00,2013-03-01 04:06:00,
2013-02-28 22:11:00,22.5,19.5,30.38,East,97,7.0,12.0,88,0.00,,OVC080,0.00,0.00,VWS V14.00,2013-03-01 04:11:00,
2013-02-28 22:16:00,22.5,19.8,30.38,East,94,7.0,12.0,89,0.00,,OVC080,0.00,0.00,VWS V14.00,2013-03-01 04:16:00,
2013-02-28 22:21:00,22.5,19.8,30.39,East,94,6.0,12.0,89,0.00,,OVC080,0.00,0.00,VWS V14.00,2013-03-01 04:21:00,
2013-02-28 22:26:00,22.4,19.7,30.39,ESE,104,9.0,12.0,89,0.00,,OVC080,0.00,0.00,VWS V14.00,2013-03-01 04:26:00,
2013-02-28 22:31:00,22.4,19.7,30.39,ESE,102,8.0,10.0,89,0.00,,OVC080,0.00,0.00,VWS V14.00,2013-03-01 04:31:00,
2013-02-28 22:36:00,22.4,19.7,30.39,East,99,9.0,11.0,89,0.00,,OVC080,0.00,0.00,VWS V14.00,2013-03-01 04:36:00,
2013-02-28 22:41:00,22.3,19.6,30.39,East,101,11.0,11.0,89,0.00,,OVC065,0.00,0.00,VWS V14.00,2013-03-01 04:41:00,
2013-02-28 22:46:00,22.2,19.5,30.39,ESE,109,8.0,12.0,89,0.00,,OVC065,0.00,0.00,VWS V14.00,2013-03-01 04:46:00,
2013-02-28 22:51:00,22.1,19.4,30.39,East,97,8.0,12.0,89,0.00,,OVC060,0.00,0.00,VWS V14.00,2013-03-01 04:51:00,
2013-02-28 22:56:00,21.9,19.2,30.39,East,101,10.0,12.0,89,0.00,,OVC060,0.00,0.00,VWS V14.00,2013-03-01 04:56:00,
2013-02-28 23:00:00,21.9,19.2,30.39,ESE,106,10.0,11.0,89,0.00,,OVC060,0.00,0.00,VWS V14.00,2013-03-01 05:00:00,
2013-02-28 23:01:00,21.8,19.1,30.39,ESE,105,9.0,11.0,89,0.00,,OVC060,0.00,0.00,VWS V14.00,2013-03-01 05:01:00,
2013-02-28 23:02:00,21.8,19.1,30.39,ESE,110,11.0,12.0,89,0.00,,OVC060,0.00,0.00,VWS V14.00,2013-03-01 05:02:00,
2013-02-28 23:06:00,21.8,19.1,30.39,ESE,112,9.0,12.0,89,0.00,,OVC060,0.00,0.00,VWS V14.00,2013-03-01 05:06:00,
2013-02-28 23:08:00,21.8,19.3,30.39,ESE,113,8.0,12.0,90,0.00,,OVC060,0.00,0.00,VWS V14.00,2013-03-01 05:08:00,
2013-02-28 23:13:00,21.8,19.3,30.40,ESE,111,9.0,12.0,90,0.00,,OVC060,0.00,0.00,VWS V14.00,2013-03-01 05:13:00,
2013-02-28 23:18:00,21.7,19.2,30.40,East,101,8.0,12.0,90,0.00,,OVC060,0.00,0.00,VWS V14.00,2013-03-01 05:18:00,
2013-02-28 23:23:00,21.6,19.1,30.40,ESE,107,9.0,12.0,90,0.00,,OVC060,0.00,0.00,VWS V14.00,2013-03-01 05:23:00,
2013-02-28 23:28:00,21.4,18.9,30.40,ESE,108,9.0,11.0,90,0.00,,OVC060,0.00,0.00,VWS V14.00,2013-03-01 05:28:00,
2013-02-28 23:33:00,21.3,18.8,30.40,ESE,107,9.0,11.0,90,0.00,,OVC060,0.00,0.00,VWS V14.00,2013-03-01 05:33:00,
2013-02-28 23:38:00,21.2,18.7,30.40,ESE,104,10.0,11.0,90,0.00,,OVC060,0.00,0.00,VWS V14.00,2013-03-01 05:38:00,
2013-02-28 23:44:00,21.2,18.7,30.40,ESE,107,8.0,11.0,90,0.00,,OVC011,0.00,0.00,VWS V14.00,2013-03-01 05:44:00,
2013-02-28 23:49:00,21.1,18.6,30.40,ESE,104,9.0,11.0,90,0.00,,OVC011,0.00,0.00,VWS V14.00,2013-03-01 05:49:00,
2013-02-28 23:54:00,20.9,18.4,30.40,ESE,107,9.0,12.0,90,0.00,,OVC011,0.00,0.00,VWS V14.00,2013-03-01 05:54:00,
2013-02-28 23:59:00,20.9,18.7,30.40,ESE,113,9.0,10.0,91,0.00,,OVC011,0.00,0.00,VWS V14.00,2013-03-01 05:59:00,